sensor_id;sensor_type;location;lat;lon;timestamp;P1;durP1;ratioP1;P2;durP2;ratioP2
81903;SDS011;71370;-33.792;151.032;2023-07-30T00:00:50;2.50;;;0.70;;
81903;SDS011;71370;-33.792;151.032;2023-07-30T00:01:57;3.20;;;0.90;;
81903;SDS011;71370;-33.792;151.032;2023-07-30T00:03:05;1.90;;;0.30;;
81903;SDS011;71370;-33.792;151.032;2023-07-30T00:04:12;2.50;;;0.40;;
81903;SDS011;71370;-33.792;151.032;2023-07-30T00:05:19;3.40;;;0.60;;
81903;SDS011;71370;-33.792;151.032;2023-07-30T00:06:25;2.80;;;0.90;;
81903;SDS011;71370;-33.792;151.032;2023-07-30T00:07:32;2.90;;;0.60;;
81903;SDS011;71370;-33.792;151.032;2023-07-30T00:08:39;2.20;;;0.60;;
81903;SDS011;71370;-33.792;151.032;2023-07-30T00:09:46;4.50;;;0.70;;
81903;SDS011;71370;-33.792;151.032;2023-07-30T00:10:54;2.60;;;0.70;;
81903;SDS011;71370;-33.792;151.032;2023-07-30T00:12:07;2.30;;;0.70;;
81903;SDS011;71370;-33.792;151.032;2023-07-30T00:13:15;2.00;;;0.80;;
81903;SDS011;71370;-33.792;151.032;2023-07-30T00:14:22;2.30;;;0.60;;
81903;SDS011;71370;-33.792;151.032;2023-07-30T00:15:29;1.90;;;0.70;;
81903;SDS011;71370;-33.792;151.032;2023-07-30T00:16:36;2.60;;;0.50;;
81903;SDS011;71370;-33.792;151.032;2023-07-30T00:17:43;2.50;;;0.60;;
81903;SDS011;71370;-33.792;151.032;2023-07-30T00:18:50;2.60;;;0.50;;
81903;SDS011;71370;-33.792;151.032;2023-07-30T00:19:57;2.90;;;1.00;;
81903;SDS011;71370;-33.792;151.032;2023-07-30T00:21:07;1.80;;;0.60;;
81903;SDS011;71370;-33.792;151.032;2023-07-30T00:22:14;2.70;;;0.40;;
81903;SDS011;71370;-33.792;151.032;2023-07-30T00:23:21;2.60;;;0.50;;
81903;SDS011;71370;-33.792;151.032;2023-07-30T00:24:28;2.10;;;0.80;;
81903;SDS011;71370;-33.792;151.032;2023-07-30T00:25:35;2.60;;;0.60;;
81903;SDS011;71370;-33.792;151.032;2023-07-30T00:26:42;2.70;;;0.70;;
81903;SDS011;71370;-33.792;151.032;2023-07-30T00:27:49;2.70;;;0.70;;
81903;SDS011;71370;-33.792;151.032;2023-07-30T00:28:56;2.70;;;0.70;;
81903;SDS011;71370;-33.792;151.032;2023-07-30T00:30:03;2.70;;;0.50;;
81903;SDS011;71370;-33.792;151.032;2023-07-30T00:31:11;2.30;;;0.80;;
81903;SDS011;71370;-33.792;151.032;2023-07-30T00:32:17;2.70;;;1.10;;
81903;SDS011;71370;-33.792;151.032;2023-07-30T00:33:24;2.60;;;1.40;;
81903;SDS011;71370;-33.792;151.032;2023-07-30T00:34:31;5.80;;;3.70;;
81903;SDS011;71370;-33.792;151.032;2023-07-30T00:35:38;6.90;;;5.50;;
81903;SDS011;71370;-33.792;151.032;2023-07-30T00:36:45;2.60;;;1.40;;
81903;SDS011;71370;-33.792;151.032;2023-07-30T00:37:52;3.80;;;2.10;;
81903;SDS011;71370;-33.792;151.032;2023-07-30T00:38:59;3.40;;;2.40;;
81903;SDS011;71370;-33.792;151.032;2023-07-30T00:40:06;3.30;;;1.80;;
81903;SDS011;71370;-33.792;151.032;2023-07-30T00:41:13;3.50;;;2.00;;
81903;SDS011;71370;-33.792;151.032;2023-07-30T00:42:20;4.10;;;2.90;;
81903;SDS011;71370;-33.792;151.032;2023-07-30T00:43:27;7.20;;;4.80;;
81903;SDS011;71370;-33.792;151.032;2023-07-30T00:44:34;10.00;;;9.00;;
81903;SDS011;71370;-33.792;151.032;2023-07-30T00:45:42;6.20;;;3.80;;
81903;SDS011;71370;-33.792;151.032;2023-07-30T00:46:50;5.60;;;4.70;;
81903;SDS011;71370;-33.792;151.032;2023-07-30T00:47:57;4.20;;;2.30;;
81903;SDS011;71370;-33.792;151.032;2023-07-30T00:49:04;2.80;;;1.10;;
81903;SDS011;71370;-33.792;151.032;2023-07-30T00:50:12;2.50;;;0.90;;
81903;SDS011;71370;-33.792;151.032;2023-07-30T00:51:21;2.70;;;1.00;;
81903;SDS011;71370;-33.792;151.032;2023-07-30T00:52:29;2.40;;;0.80;;
81903;SDS011;71370;-33.792;151.032;2023-07-30T00:53:36;3.70;;;0.90;;
81903;SDS011;71370;-33.792;151.032;2023-07-30T00:54:43;2.90;;;0.70;;
81903;SDS011;71370;-33.792;151.032;2023-07-30T00:55:52;2.40;;;0.70;;
81903;SDS011;71370;-33.792;151.032;2023-07-30T00:57:00;3.10;;;0.60;;
81903;SDS011;71370;-33.792;151.032;2023-07-30T00:58:07;2.40;;;0.50;;
81903;SDS011;71370;-33.792;151.032;2023-07-30T00:59:15;2.50;;;0.60;;
81903;SDS011;71370;-33.792;151.032;2023-07-30T01:00:22;2.80;;;0.80;;
81903;SDS011;71370;-33.792;151.032;2023-07-30T01:01:30;2.30;;;0.50;;
81903;SDS011;71370;-33.792;151.032;2023-07-30T01:02:41;3.10;;;0.70;;
81903;SDS011;71370;-33.792;151.032;2023-07-30T01:03:48;4.00;;;0.80;;
81903;SDS011;71370;-33.792;151.032;2023-07-30T01:04:56;2.90;;;0.70;;
81903;SDS011;71370;-33.792;151.032;2023-07-30T01:06:05;1.90;;;0.60;;
81903;SDS011;71370;-33.792;151.032;2023-07-30T01:07:13;3.70;;;0.80;;
81903;SDS011;71370;-33.792;151.032;2023-07-30T01:08:20;1.80;;;0.40;;
81903;SDS011;71370;-33.792;151.032;2023-07-30T01:09:27;2.60;;;0.80;;
81903;SDS011;71370;-33.792;151.032;2023-07-30T01:10:34;2.40;;;0.80;;
81903;SDS011;71370;-33.792;151.032;2023-07-30T01:11:44;2.00;;;0.60;;
81903;SDS011;71370;-33.792;151.032;2023-07-30T01:12:52;2.70;;;0.70;;
81903;SDS011;71370;-33.792;151.032;2023-07-30T01:13:59;3.00;;;1.00;;
81903;SDS011;71370;-33.792;151.032;2023-07-30T01:15:07;2.90;;;0.70;;
81903;SDS011;71370;-33.792;151.032;2023-07-30T01:16:15;2.60;;;1.10;;
81903;SDS011;71370;-33.792;151.032;2023-07-30T01:17:23;2.90;;;1.00;;
81903;SDS011;71370;-33.792;151.032;2023-07-30T01:18:30;4.00;;;0.70;;
81903;SDS011;71370;-33.792;151.032;2023-07-30T01:19:37;2.40;;;0.90;;
81903;SDS011;71370;-33.792;151.032;2023-07-30T01:20:44;3.00;;;0.80;;
81903;SDS011;71370;-33.792;151.032;2023-07-30T01:21:51;2.40;;;0.80;;
81903;SDS011;71370;-33.792;151.032;2023-07-30T01:22:58;2.30;;;0.70;;
81903;SDS011;71370;-33.792;151.032;2023-07-30T01:24:05;2.70;;;0.70;;
81903;SDS011;71370;-33.792;151.032;2023-07-30T01:25:13;3.40;;;1.10;;
81903;SDS011;71370;-33.792;151.032;2023-07-30T01:26:24;2.30;;;0.80;;
81903;SDS011;71370;-33.792;151.032;2023-07-30T01:27:37;2.30;;;0.80;;
81903;SDS011;71370;-33.792;151.032;2023-07-30T01:28:51;2.30;;;0.50;;
81903;SDS011;71370;-33.792;151.032;2023-07-30T01:31:30;3.50;;;1.10;;
81903;SDS011;71370;-33.792;151.032;2023-07-30T01:32:40;2.80;;;0.70;;
81903;SDS011;71370;-33.792;151.032;2023-07-30T01:33:48;1.70;;;0.60;;
81903;SDS011;71370;-33.792;151.032;2023-07-30T01:35:00;2.60;;;0.80;;
81903;SDS011;71370;-33.792;151.032;2023-07-30T01:36:10;3.00;;;0.90;;
81903;SDS011;71370;-33.792;151.032;2023-07-30T01:37:21;2.80;;;0.80;;
81903;SDS011;71370;-33.792;151.032;2023-07-30T01:38:29;2.00;;;0.90;;
81903;SDS011;71370;-33.792;151.032;2023-07-30T01:39:37;3.20;;;1.10;;
81903;SDS011;71370;-33.792;151.032;2023-07-30T01:40:47;1.80;;;0.60;;
81903;SDS011;71370;-33.792;151.032;2023-07-30T01:41:54;2.20;;;0.70;;
81903;SDS011;71370;-33.792;151.032;2023-07-30T01:43:01;2.20;;;0.70;;
81903;SDS011;71370;-33.792;151.032;2023-07-30T01:44:08;2.40;;;0.90;;
81903;SDS011;71370;-33.792;151.032;2023-07-30T01:45:15;2.30;;;0.60;;
81903;SDS011;71370;-33.792;151.032;2023-07-30T01:46:22;2.50;;;1.10;;
81903;SDS011;71370;-33.792;151.032;2023-07-30T01:47:29;3.10;;;0.80;;
81903;SDS011;71370;-33.792;151.032;2023-07-30T01:48:36;3.00;;;1.20;;
81903;SDS011;71370;-33.792;151.032;2023-07-30T01:49:43;4.40;;;2.20;;
81903;SDS011;71370;-33.792;151.032;2023-07-30T01:50:50;4.80;;;2.10;;
81903;SDS011;71370;-33.792;151.032;2023-07-30T01:51:57;3.10;;;1.50;;
81903;SDS011;71370;-33.792;151.032;2023-07-30T01:53:04;2.60;;;1.40;;
81903;SDS011;71370;-33.792;151.032;2023-07-30T01:54:10;3.00;;;0.90;;
81903;SDS011;71370;-33.792;151.032;2023-07-30T01:55:17;9.40;;;7.20;;
81903;SDS011;71370;-33.792;151.032;2023-07-30T01:56:24;6.20;;;3.80;;
81903;SDS011;71370;-33.792;151.032;2023-07-30T01:57:31;4.00;;;1.00;;
81903;SDS011;71370;-33.792;151.032;2023-07-30T01:58:38;4.10;;;1.80;;
81903;SDS011;71370;-33.792;151.032;2023-07-30T01:59:45;5.90;;;3.40;;
81903;SDS011;71370;-33.792;151.032;2023-07-30T02:00:52;6.60;;;3.70;;
81903;SDS011;71370;-33.792;151.032;2023-07-30T02:01:59;4.40;;;2.60;;
81903;SDS011;71370;-33.792;151.032;2023-07-30T02:03:06;5.20;;;3.00;;
81903;SDS011;71370;-33.792;151.032;2023-07-30T02:04:13;2.60;;;1.20;;
81903;SDS011;71370;-33.792;151.032;2023-07-30T02:05:22;3.60;;;2.10;;
81903;SDS011;71370;-33.792;151.032;2023-07-30T02:06:30;3.40;;;1.20;;
81903;SDS011;71370;-33.792;151.032;2023-07-30T02:07:37;2.80;;;0.80;;
81903;SDS011;71370;-33.792;151.032;2023-07-30T02:08:44;4.40;;;1.10;;
81903;SDS011;71370;-33.792;151.032;2023-07-30T02:09:50;2.70;;;1.10;;
81903;SDS011;71370;-33.792;151.032;2023-07-30T02:10:58;4.30;;;1.30;;
81903;SDS011;71370;-33.792;151.032;2023-07-30T02:12:05;3.00;;;1.70;;
81903;SDS011;71370;-33.792;151.032;2023-07-30T02:13:13;3.30;;;1.30;;
81903;SDS011;71370;-33.792;151.032;2023-07-30T02:14:20;3.10;;;1.10;;
81903;SDS011;71370;-33.792;151.032;2023-07-30T02:15:27;1.70;;;0.90;;
81903;SDS011;71370;-33.792;151.032;2023-07-30T02:16:33;2.00;;;0.50;;
81903;SDS011;71370;-33.792;151.032;2023-07-30T02:17:40;2.30;;;0.60;;
81903;SDS011;71370;-33.792;151.032;2023-07-30T02:18:48;2.40;;;0.60;;
81903;SDS011;71370;-33.792;151.032;2023-07-30T02:19:55;1.40;;;0.40;;
81903;SDS011;71370;-33.792;151.032;2023-07-30T02:21:02;1.90;;;0.60;;
81903;SDS011;71370;-33.792;151.032;2023-07-30T02:22:09;1.50;;;0.50;;
81903;SDS011;71370;-33.792;151.032;2023-07-30T02:23:16;2.30;;;0.50;;
81903;SDS011;71370;-33.792;151.032;2023-07-30T02:24:23;2.10;;;0.50;;
81903;SDS011;71370;-33.792;151.032;2023-07-30T02:25:30;2.50;;;0.80;;
81903;SDS011;71370;-33.792;151.032;2023-07-30T02:26:37;2.80;;;1.30;;
81903;SDS011;71370;-33.792;151.032;2023-07-30T02:27:45;4.60;;;2.60;;
81903;SDS011;71370;-33.792;151.032;2023-07-30T02:28:51;3.30;;;2.00;;
81903;SDS011;71370;-33.792;151.032;2023-07-30T02:29:58;4.80;;;2.80;;
81903;SDS011;71370;-33.792;151.032;2023-07-30T02:31:05;3.70;;;1.50;;
81903;SDS011;71370;-33.792;151.032;2023-07-30T02:32:12;2.70;;;0.90;;
81903;SDS011;71370;-33.792;151.032;2023-07-30T02:33:19;2.10;;;0.80;;
81903;SDS011;71370;-33.792;151.032;2023-07-30T02:34:26;3.50;;;1.40;;
81903;SDS011;71370;-33.792;151.032;2023-07-30T02:35:33;2.40;;;1.10;;
81903;SDS011;71370;-33.792;151.032;2023-07-30T02:36:40;1.90;;;0.50;;
81903;SDS011;71370;-33.792;151.032;2023-07-30T02:37:47;2.70;;;1.00;;
81903;SDS011;71370;-33.792;151.032;2023-07-30T02:38:54;2.80;;;1.70;;
81903;SDS011;71370;-33.792;151.032;2023-07-30T02:40:01;3.90;;;1.90;;
81903;SDS011;71370;-33.792;151.032;2023-07-30T02:41:10;3.30;;;1.60;;
81903;SDS011;71370;-33.792;151.032;2023-07-30T02:42:17;4.60;;;2.60;;
81903;SDS011;71370;-33.792;151.032;2023-07-30T02:43:24;2.40;;;0.90;;
81903;SDS011;71370;-33.792;151.032;2023-07-30T02:44:31;2.70;;;0.90;;
81903;SDS011;71370;-33.792;151.032;2023-07-30T02:45:38;2.10;;;0.70;;
81903;SDS011;71370;-33.792;151.032;2023-07-30T02:46:45;3.10;;;1.60;;
81903;SDS011;71370;-33.792;151.032;2023-07-30T02:47:52;3.70;;;1.30;;
81903;SDS011;71370;-33.792;151.032;2023-07-30T02:48:59;1.80;;;0.60;;
81903;SDS011;71370;-33.792;151.032;2023-07-30T02:50:06;3.80;;;1.60;;
81903;SDS011;71370;-33.792;151.032;2023-07-30T02:51:14;3.40;;;1.60;;
81903;SDS011;71370;-33.792;151.032;2023-07-30T02:52:21;2.00;;;0.80;;
81903;SDS011;71370;-33.792;151.032;2023-07-30T02:53:28;2.10;;;0.80;;
81903;SDS011;71370;-33.792;151.032;2023-07-30T02:54:35;2.50;;;1.40;;
81903;SDS011;71370;-33.792;151.032;2023-07-30T02:55:42;2.70;;;1.10;;
81903;SDS011;71370;-33.792;151.032;2023-07-30T02:56:49;3.30;;;0.60;;
81903;SDS011;71370;-33.792;151.032;2023-07-30T02:57:56;4.10;;;1.70;;
81903;SDS011;71370;-33.792;151.032;2023-07-30T02:59:02;3.40;;;1.50;;
81903;SDS011;71370;-33.792;151.032;2023-07-30T03:00:09;4.00;;;2.50;;
81903;SDS011;71370;-33.792;151.032;2023-07-30T03:01:17;3.40;;;1.50;;
81903;SDS011;71370;-33.792;151.032;2023-07-30T03:02:24;2.50;;;1.20;;
81903;SDS011;71370;-33.792;151.032;2023-07-30T03:03:31;3.90;;;2.40;;
81903;SDS011;71370;-33.792;151.032;2023-07-30T03:04:38;6.40;;;4.30;;
81903;SDS011;71370;-33.792;151.032;2023-07-30T03:05:45;3.10;;;1.40;;
81903;SDS011;71370;-33.792;151.032;2023-07-30T03:06:52;3.70;;;1.30;;
81903;SDS011;71370;-33.792;151.032;2023-07-30T03:07:59;1.80;;;0.80;;
81903;SDS011;71370;-33.792;151.032;2023-07-30T03:09:05;4.40;;;2.20;;
81903;SDS011;71370;-33.792;151.032;2023-07-30T03:10:13;3.10;;;1.20;;
81903;SDS011;71370;-33.792;151.032;2023-07-30T03:11:21;2.60;;;0.90;;
81903;SDS011;71370;-33.792;151.032;2023-07-30T03:12:29;2.40;;;0.50;;
81903;SDS011;71370;-33.792;151.032;2023-07-30T03:13:35;2.70;;;0.80;;
81903;SDS011;71370;-33.792;151.032;2023-07-30T03:14:42;2.20;;;1.00;;
81903;SDS011;71370;-33.792;151.032;2023-07-30T03:15:49;2.60;;;0.70;;
81903;SDS011;71370;-33.792;151.032;2023-07-30T03:16:56;2.10;;;0.50;;
81903;SDS011;71370;-33.792;151.032;2023-07-30T03:18:03;1.50;;;0.50;;
81903;SDS011;71370;-33.792;151.032;2023-07-30T03:19:10;2.80;;;1.10;;
81903;SDS011;71370;-33.792;151.032;2023-07-30T03:20:17;2.00;;;0.80;;
81903;SDS011;71370;-33.792;151.032;2023-07-30T03:21:24;2.80;;;0.70;;
81903;SDS011;71370;-33.792;151.032;2023-07-30T03:22:31;1.10;;;0.30;;
81903;SDS011;71370;-33.792;151.032;2023-07-30T03:23:38;3.40;;;0.80;;
81903;SDS011;71370;-33.792;151.032;2023-07-30T03:24:46;2.50;;;0.80;;
81903;SDS011;71370;-33.792;151.032;2023-07-30T03:25:53;2.50;;;0.60;;
81903;SDS011;71370;-33.792;151.032;2023-07-30T03:27:00;3.10;;;1.00;;
81903;SDS011;71370;-33.792;151.032;2023-07-30T03:28:07;1.60;;;0.50;;
81903;SDS011;71370;-33.792;151.032;2023-07-30T03:29:15;2.30;;;0.90;;
81903;SDS011;71370;-33.792;151.032;2023-07-30T03:30:22;2.60;;;1.30;;
81903;SDS011;71370;-33.792;151.032;2023-07-30T03:31:29;2.40;;;0.60;;
81903;SDS011;71370;-33.792;151.032;2023-07-30T03:32:36;2.10;;;0.80;;
81903;SDS011;71370;-33.792;151.032;2023-07-30T03:33:43;2.30;;;0.70;;
81903;SDS011;71370;-33.792;151.032;2023-07-30T03:34:51;1.90;;;0.70;;
81903;SDS011;71370;-33.792;151.032;2023-07-30T03:35:58;3.90;;;0.80;;
81903;SDS011;71370;-33.792;151.032;2023-07-30T03:37:05;2.40;;;0.70;;
81903;SDS011;71370;-33.792;151.032;2023-07-30T03:38:12;1.80;;;0.60;;
81903;SDS011;71370;-33.792;151.032;2023-07-30T03:39:19;1.60;;;0.60;;
81903;SDS011;71370;-33.792;151.032;2023-07-30T03:40:26;1.80;;;0.50;;
81903;SDS011;71370;-33.792;151.032;2023-07-30T03:41:34;2.70;;;0.60;;
81903;SDS011;71370;-33.792;151.032;2023-07-30T03:42:42;2.00;;;0.50;;
81903;SDS011;71370;-33.792;151.032;2023-07-30T03:43:49;2.20;;;0.70;;
81903;SDS011;71370;-33.792;151.032;2023-07-30T03:44:56;2.30;;;0.80;;
81903;SDS011;71370;-33.792;151.032;2023-07-30T03:46:03;1.70;;;0.50;;
81903;SDS011;71370;-33.792;151.032;2023-07-30T03:47:10;3.20;;;0.70;;
81903;SDS011;71370;-33.792;151.032;2023-07-30T03:48:17;2.50;;;1.00;;
81903;SDS011;71370;-33.792;151.032;2023-07-30T03:49:23;2.20;;;0.60;;
81903;SDS011;71370;-33.792;151.032;2023-07-30T03:50:30;1.90;;;0.70;;
81903;SDS011;71370;-33.792;151.032;2023-07-30T03:51:38;1.70;;;0.90;;
81903;SDS011;71370;-33.792;151.032;2023-07-30T03:52:45;2.10;;;0.70;;
81903;SDS011;71370;-33.792;151.032;2023-07-30T03:53:52;1.70;;;0.50;;
81903;SDS011;71370;-33.792;151.032;2023-07-30T03:54:59;1.60;;;0.50;;
81903;SDS011;71370;-33.792;151.032;2023-07-30T03:56:06;2.80;;;0.70;;
81903;SDS011;71370;-33.792;151.032;2023-07-30T03:57:13;2.40;;;0.80;;
81903;SDS011;71370;-33.792;151.032;2023-07-30T03:58:20;1.60;;;0.60;;
81903;SDS011;71370;-33.792;151.032;2023-07-30T03:59:27;2.10;;;0.70;;
81903;SDS011;71370;-33.792;151.032;2023-07-30T04:00:34;1.60;;;0.70;;
81903;SDS011;71370;-33.792;151.032;2023-07-30T04:01:41;1.70;;;0.70;;
81903;SDS011;71370;-33.792;151.032;2023-07-30T04:02:48;2.90;;;0.80;;
81903;SDS011;71370;-33.792;151.032;2023-07-30T04:03:54;2.20;;;1.00;;
81903;SDS011;71370;-33.792;151.032;2023-07-30T04:05:01;2.70;;;0.80;;
81903;SDS011;71370;-33.792;151.032;2023-07-30T04:06:09;1.40;;;0.70;;
81903;SDS011;71370;-33.792;151.032;2023-07-30T04:07:16;1.90;;;0.50;;
81903;SDS011;71370;-33.792;151.032;2023-07-30T04:08:23;2.20;;;1.10;;
81903;SDS011;71370;-33.792;151.032;2023-07-30T04:09:30;2.30;;;1.00;;
81903;SDS011;71370;-33.792;151.032;2023-07-30T04:10:37;1.80;;;0.80;;
81903;SDS011;71370;-33.792;151.032;2023-07-30T04:11:44;2.40;;;0.70;;
81903;SDS011;71370;-33.792;151.032;2023-07-30T04:12:51;1.80;;;0.50;;
81903;SDS011;71370;-33.792;151.032;2023-07-30T04:13:58;1.50;;;0.50;;
81903;SDS011;71370;-33.792;151.032;2023-07-30T04:15:05;1.60;;;1.00;;
81903;SDS011;71370;-33.792;151.032;2023-07-30T04:16:12;4.10;;;1.30;;
81903;SDS011;71370;-33.792;151.032;2023-07-30T04:17:19;2.30;;;0.60;;
81903;SDS011;71370;-33.792;151.032;2023-07-30T04:18:26;1.90;;;0.60;;
81903;SDS011;71370;-33.792;151.032;2023-07-30T04:19:33;2.30;;;0.70;;
81903;SDS011;71370;-33.792;151.032;2023-07-30T04:20:40;1.90;;;0.90;;
81903;SDS011;71370;-33.792;151.032;2023-07-30T04:21:47;1.50;;;0.40;;
81903;SDS011;71370;-33.792;151.032;2023-07-30T04:22:54;1.40;;;0.40;;
81903;SDS011;71370;-33.792;151.032;2023-07-30T04:24:01;2.30;;;0.50;;
81903;SDS011;71370;-33.792;151.032;2023-07-30T04:25:08;1.90;;;0.50;;
81903;SDS011;71370;-33.792;151.032;2023-07-30T04:26:16;2.00;;;0.90;;
81903;SDS011;71370;-33.792;151.032;2023-07-30T04:27:23;2.10;;;0.90;;
81903;SDS011;71370;-33.792;151.032;2023-07-30T04:28:30;1.60;;;0.70;;
81903;SDS011;71370;-33.792;151.032;2023-07-30T04:29:37;2.40;;;0.90;;
81903;SDS011;71370;-33.792;151.032;2023-07-30T04:30:44;2.40;;;0.60;;
81903;SDS011;71370;-33.792;151.032;2023-07-30T04:31:54;2.30;;;0.50;;
81903;SDS011;71370;-33.792;151.032;2023-07-30T04:33:01;1.50;;;0.60;;
81903;SDS011;71370;-33.792;151.032;2023-07-30T04:34:08;1.80;;;0.70;;
81903;SDS011;71370;-33.792;151.032;2023-07-30T04:35:15;2.20;;;0.70;;
81903;SDS011;71370;-33.792;151.032;2023-07-30T04:36:22;1.70;;;0.70;;
81903;SDS011;71370;-33.792;151.032;2023-07-30T04:37:29;2.00;;;0.90;;
81903;SDS011;71370;-33.792;151.032;2023-07-30T04:38:36;2.10;;;0.50;;
81903;SDS011;71370;-33.792;151.032;2023-07-30T04:39:43;2.40;;;1.20;;
81903;SDS011;71370;-33.792;151.032;2023-07-30T04:40:50;1.50;;;0.60;;
81903;SDS011;71370;-33.792;151.032;2023-07-30T04:41:57;2.20;;;0.60;;
81903;SDS011;71370;-33.792;151.032;2023-07-30T04:43:04;2.30;;;0.80;;
81903;SDS011;71370;-33.792;151.032;2023-07-30T04:44:11;1.90;;;0.60;;
81903;SDS011;71370;-33.792;151.032;2023-07-30T04:45:18;3.00;;;0.90;;
81903;SDS011;71370;-33.792;151.032;2023-07-30T04:46:25;2.10;;;0.60;;
81903;SDS011;71370;-33.792;151.032;2023-07-30T04:47:31;2.60;;;0.70;;
81903;SDS011;71370;-33.792;151.032;2023-07-30T04:48:38;2.30;;;0.50;;
81903;SDS011;71370;-33.792;151.032;2023-07-30T04:49:46;1.90;;;0.60;;
81903;SDS011;71370;-33.792;151.032;2023-07-30T04:50:53;1.70;;;0.60;;
81903;SDS011;71370;-33.792;151.032;2023-07-30T04:52:01;1.80;;;0.50;;
81903;SDS011;71370;-33.792;151.032;2023-07-30T04:53:08;1.40;;;0.30;;
81903;SDS011;71370;-33.792;151.032;2023-07-30T04:54:15;1.60;;;0.50;;
81903;SDS011;71370;-33.792;151.032;2023-07-30T04:55:22;1.70;;;0.60;;
81903;SDS011;71370;-33.792;151.032;2023-07-30T04:56:29;2.10;;;0.50;;
81903;SDS011;71370;-33.792;151.032;2023-07-30T04:57:35;2.10;;;0.70;;
81903;SDS011;71370;-33.792;151.032;2023-07-30T04:58:42;2.40;;;1.90;;
81903;SDS011;71370;-33.792;151.032;2023-07-30T04:59:49;1.80;;;0.60;;
81903;SDS011;71370;-33.792;151.032;2023-07-30T05:00:56;1.70;;;0.60;;
81903;SDS011;71370;-33.792;151.032;2023-07-30T05:02:03;2.00;;;0.90;;
81903;SDS011;71370;-33.792;151.032;2023-07-30T05:03:10;1.50;;;0.50;;
81903;SDS011;71370;-33.792;151.032;2023-07-30T05:04:17;1.60;;;0.50;;
81903;SDS011;71370;-33.792;151.032;2023-07-30T05:05:24;1.90;;;0.50;;
81903;SDS011;71370;-33.792;151.032;2023-07-30T05:06:31;1.60;;;0.40;;
81903;SDS011;71370;-33.792;151.032;2023-07-30T05:07:38;2.30;;;0.70;;
81903;SDS011;71370;-33.792;151.032;2023-07-30T05:08:45;2.50;;;0.70;;
81903;SDS011;71370;-33.792;151.032;2023-07-30T05:09:52;3.80;;;0.90;;
81903;SDS011;71370;-33.792;151.032;2023-07-30T05:10:59;2.40;;;0.50;;
81903;SDS011;71370;-33.792;151.032;2023-07-30T05:12:06;2.30;;;0.60;;
81903;SDS011;71370;-33.792;151.032;2023-07-30T05:13:13;2.40;;;0.60;;
81903;SDS011;71370;-33.792;151.032;2023-07-30T05:14:20;3.90;;;1.10;;
81903;SDS011;71370;-33.792;151.032;2023-07-30T05:15:27;2.40;;;0.90;;
81903;SDS011;71370;-33.792;151.032;2023-07-30T05:16:34;3.20;;;0.90;;
81903;SDS011;71370;-33.792;151.032;2023-07-30T05:17:42;1.80;;;0.40;;
81903;SDS011;71370;-33.792;151.032;2023-07-30T05:18:49;1.90;;;0.90;;
81903;SDS011;71370;-33.792;151.032;2023-07-30T05:19:56;1.80;;;0.50;;
81903;SDS011;71370;-33.792;151.032;2023-07-30T05:21:03;2.20;;;0.60;;
81903;SDS011;71370;-33.792;151.032;2023-07-30T05:22:10;1.50;;;0.40;;
81903;SDS011;71370;-33.792;151.032;2023-07-30T05:23:16;2.00;;;0.70;;
81903;SDS011;71370;-33.792;151.032;2023-07-30T05:24:23;2.30;;;1.10;;
81903;SDS011;71370;-33.792;151.032;2023-07-30T05:25:30;1.60;;;0.40;;
81903;SDS011;71370;-33.792;151.032;2023-07-30T05:26:37;2.60;;;0.70;;
81903;SDS011;71370;-33.792;151.032;2023-07-30T05:27:44;2.20;;;0.90;;
81903;SDS011;71370;-33.792;151.032;2023-07-30T05:28:51;3.40;;;0.50;;
81903;SDS011;71370;-33.792;151.032;2023-07-30T05:29:58;2.20;;;0.70;;
81903;SDS011;71370;-33.792;151.032;2023-07-30T05:31:05;2.00;;;0.90;;
81903;SDS011;71370;-33.792;151.032;2023-07-30T05:32:12;2.00;;;0.60;;
81903;SDS011;71370;-33.792;151.032;2023-07-30T05:33:19;1.70;;;0.60;;
81903;SDS011;71370;-33.792;151.032;2023-07-30T05:34:26;2.00;;;0.70;;
81903;SDS011;71370;-33.792;151.032;2023-07-30T05:35:33;2.40;;;0.80;;
81903;SDS011;71370;-33.792;151.032;2023-07-30T05:36:40;2.20;;;1.20;;
81903;SDS011;71370;-33.792;151.032;2023-07-30T05:37:47;2.30;;;0.60;;
81903;SDS011;71370;-33.792;151.032;2023-07-30T05:38:54;2.00;;;0.80;;
81903;SDS011;71370;-33.792;151.032;2023-07-30T05:40:01;1.60;;;0.50;;
81903;SDS011;71370;-33.792;151.032;2023-07-30T05:41:08;2.10;;;0.80;;
81903;SDS011;71370;-33.792;151.032;2023-07-30T05:42:15;2.60;;;0.80;;
81903;SDS011;71370;-33.792;151.032;2023-07-30T05:43:22;2.90;;;1.00;;
81903;SDS011;71370;-33.792;151.032;2023-07-30T05:44:29;1.40;;;0.40;;
81903;SDS011;71370;-33.792;151.032;2023-07-30T05:45:36;2.10;;;0.70;;
81903;SDS011;71370;-33.792;151.032;2023-07-30T05:46:43;2.30;;;1.20;;
81903;SDS011;71370;-33.792;151.032;2023-07-30T05:47:50;2.20;;;0.50;;
81903;SDS011;71370;-33.792;151.032;2023-07-30T05:48:57;2.00;;;0.90;;
81903;SDS011;71370;-33.792;151.032;2023-07-30T05:50:04;1.50;;;0.60;;
81903;SDS011;71370;-33.792;151.032;2023-07-30T05:51:12;1.40;;;0.60;;
81903;SDS011;71370;-33.792;151.032;2023-07-30T05:52:19;3.00;;;0.90;;
81903;SDS011;71370;-33.792;151.032;2023-07-30T05:53:26;3.30;;;0.80;;
81903;SDS011;71370;-33.792;151.032;2023-07-30T05:54:33;1.90;;;0.60;;
81903;SDS011;71370;-33.792;151.032;2023-07-30T05:55:40;1.90;;;0.50;;
81903;SDS011;71370;-33.792;151.032;2023-07-30T05:56:47;4.00;;;0.50;;
81903;SDS011;71370;-33.792;151.032;2023-07-30T05:57:54;2.60;;;0.50;;
81903;SDS011;71370;-33.792;151.032;2023-07-30T05:59:01;2.70;;;0.60;;
81903;SDS011;71370;-33.792;151.032;2023-07-30T06:00:08;2.10;;;0.60;;
81903;SDS011;71370;-33.792;151.032;2023-07-30T06:01:15;1.80;;;0.80;;
81903;SDS011;71370;-33.792;151.032;2023-07-30T06:02:23;2.40;;;0.60;;
81903;SDS011;71370;-33.792;151.032;2023-07-30T06:03:29;2.30;;;0.50;;
81903;SDS011;71370;-33.792;151.032;2023-07-30T06:04:36;3.30;;;0.70;;
81903;SDS011;71370;-33.792;151.032;2023-07-30T06:05:43;2.80;;;0.70;;
81903;SDS011;71370;-33.792;151.032;2023-07-30T06:06:50;2.80;;;0.80;;
81903;SDS011;71370;-33.792;151.032;2023-07-30T06:07:57;1.80;;;0.50;;
81903;SDS011;71370;-33.792;151.032;2023-07-30T06:09:05;1.70;;;0.40;;
81903;SDS011;71370;-33.792;151.032;2023-07-30T06:10:12;2.00;;;0.80;;
81903;SDS011;71370;-33.792;151.032;2023-07-30T06:11:19;2.30;;;0.70;;
81903;SDS011;71370;-33.792;151.032;2023-07-30T06:12:26;1.80;;;0.30;;
81903;SDS011;71370;-33.792;151.032;2023-07-30T06:13:33;2.10;;;0.80;;
81903;SDS011;71370;-33.792;151.032;2023-07-30T06:14:40;1.90;;;0.70;;
81903;SDS011;71370;-33.792;151.032;2023-07-30T06:15:47;1.70;;;0.70;;
81903;SDS011;71370;-33.792;151.032;2023-07-30T06:16:54;3.20;;;0.90;;
81903;SDS011;71370;-33.792;151.032;2023-07-30T06:18:01;3.00;;;1.00;;
81903;SDS011;71370;-33.792;151.032;2023-07-30T06:19:08;2.80;;;0.60;;
81903;SDS011;71370;-33.792;151.032;2023-07-30T06:20:15;2.40;;;0.70;;
81903;SDS011;71370;-33.792;151.032;2023-07-30T06:21:22;3.00;;;0.90;;
81903;SDS011;71370;-33.792;151.032;2023-07-30T06:22:29;2.40;;;0.80;;
81903;SDS011;71370;-33.792;151.032;2023-07-30T06:23:36;3.00;;;0.80;;
81903;SDS011;71370;-33.792;151.032;2023-07-30T06:24:43;2.70;;;0.70;;
81903;SDS011;71370;-33.792;151.032;2023-07-30T06:25:50;2.70;;;1.30;;
81903;SDS011;71370;-33.792;151.032;2023-07-30T06:26:57;2.60;;;0.90;;
81903;SDS011;71370;-33.792;151.032;2023-07-30T06:28:04;2.40;;;0.70;;
81903;SDS011;71370;-33.792;151.032;2023-07-30T06:29:11;2.70;;;0.70;;